Archival Weather

Al Kharj

Al Kharj, Saudi Arabia (OEKJ)

Report from: Thursday, February 22, 2024 7:00 AM UTC
Current time: Wednesday, April 24, 2024 7:42 PM UTC

Current weather – Weather history – Daily summaries
Weather forecast

Temperature20.0°C (68.0°F)
Dew point4.0°C (39.2°F)
Winds 4 kts (2.1 m/s, 4.6 mph) East-Northeast (70°)
Clouds Sky clear
Altimeter30.24 in.Hg (1024 mB)
Relative humidity35 %
Density altitude347 ft. (106 m)
Remarks Ceiling and visibility OK
Flight conditions Visual Meteorological Conditions
Raw dataOEKJ 220700Z 07004KT CAVOK 20/04 Q1024
An error has occurred. This application may no longer respond until reloaded. Reload 🗙